• Join FlightAware (Why Join?)
  • Login
  • US Flag 
02:03PM EDT


 

Airport Tracker/Info


-or-


 

Live Flight TrackerFlight Track Log ✈ TRS858 ✈ 03-Jul-2013 ✈ KMSY - KMCO

Flight Track Log - Related Links

Times and Time Zones

All times are in EDT time to prevent confusion due to time zone crossing. See the TRS858 flight status page for this flight to view local times or setup timezone preferences in your user account.

Time Position Orientation Groundspeed Altitude Reporting Facility
EDT Latitude Longitude Course Direction KTS MPH feet Rate Location/Type
01:39PM 30.0114 -90.2428 14° North 181 208 900  Level Houston Center
01:40PM 30.0611 -90.2289 14° North 226 260 2,600 1,860 Climbing Houston Center
01:41PM 30.0825 -90.2083 40° Northeast 294 338 3,400 2,460 Climbing Houston Center
01:42PM 30.0572 -90.1375 112° Southeast 286 329 6,500 3,240 Climbing Houston Center
01:43PM 29.9778 -90.0833 149° Southeast 280 322 10,100 2,880 Climbing Houston Center
01:44PM 29.9172 -90.0258 141° Southeast 287 330 12,500 1,740 Climbing Houston Center
01:45PM 29.8550 -89.9461 132° Southeast 324 373 13,700 1,500 Climbing Houston Center
01:46PM 29.7844 -89.8556 132° Southeast 362 417 15,700 1,920 Climbing Houston Center
01:47PM 29.7114 -89.7617 132° Southeast 388 447 17,700 2,100 Climbing Houston Center
01:48PM 29.6242 -89.6489 132° Southeast 394 453 20,100 2,160 Climbing Houston Center
01:49PM 29.5500 -89.5522 131° Southeast 400 460 22,200 1,380 Climbing Houston Center
01:50PM 29.4747 -89.4547 132° Southeast 407 468 23,000 360 Climbing Houston Center
01:51PM 29.3953 -89.3517 131° Southeast 427 491 23,000 420 Level Houston Center
01:52PM 29.3153 -89.2494 132° Southeast 430 495 23,900 960 Climbing Houston Center
01:53PM 29.2336 -89.1447 132° Southeast 439 505 25,100 1,200 Climbing Houston Center
01:54PM 29.1317 -89.0161 132° Southeast 451 519 26,500 1,200 Climbing Houston Center
01:55PM 29.0469 -88.9072 132° Southeast 457 526 27,600 960 Climbing Houston Center
01:56PM 28.9617 -88.7983 132° Southeast 459 528 28,600 960 Climbing Houston Center
01:57PM 28.8786 -88.6881 131° Southeast 459 528 29,600 960 Climbing Houston Center
01:58PM 28.7958 -88.5797 131° Southeast 456 525 30,600 1,020 Climbing Houston Center
01:59PM 28.6958 -88.4475 131° Southeast 458 527 31,800 960 Climbing Houston Center
02:00PM 28.6139 -88.3386 131° Southeast 453 521 32,700 540 Climbing Houston Center
02:01PM 28.5328 -88.2314 131° Southeast 448 516 33,000 120 Climbing Houston Center
02:02PM 28.4511 -88.1228 131° Southeast 451 519 33,000  Level Houston Center
02:03PM 28.3594 -88.0014 131° Southeast 454 522 33,000  Level Houston Center
02:05PM 28.2906 -87.8867 124° Southeast 455 524 33,000  Level Houston Center
02:06PM 28.2189 -87.7681 124° Southeast 456 525 33,000  Level Houston Center
02:07PM 28.1628 -87.6389 116° Southeast 458 527 33,000  Level Houston Center
02:08PM 28.0978 -87.4828 115° Southeast 456 525 33,000  Level Houston Center
02:09PM 28.0572 -87.3442 108° East 461 531 33,000  Level Houston Center
02:10PM 28.0428 -87.1969 96° East 472 543 33,000  Level Houston Center
02:11PM 28.0261 -87.0483 97° East 475 547 33,000  Level Houston Center
02:12PM 28.0106 -86.8956 97° East 476 548 33,000  Level Jacksonville Center
02:13PM 27.9942 -86.7444 97° East 486 559 33,000  Level Jacksonville Center
02:14PM 27.9756 -86.5958 98° East 474 545 33,000  Level Jacksonville Center
02:15PM 27.9631 -86.4567 96° East 468 539 33,000  Level Jacksonville Center
02:16PM 27.9500 -86.3153 96° East 462 532 33,000  Level Jacksonville Center
02:17PM 27.9311 -86.1644 98° East 468 539 33,000  Level Jacksonville Center
02:18PM 27.9158 -86.0253 97° East 460 529 33,000  Level Jacksonville Center
02:19PM 27.9003 -85.8839 97° East 460 529 33,000  Level Jacksonville Center
02:20PM 27.8831 -85.7286 97° East 467 537 33,000  Level Jacksonville Center
02:21PM 27.8650 -85.5897 98° East 462 532 33,000  Level Jacksonville Center
02:21PM 27.8578 -85.4881 95° East 462 532 33,000  Level Miami Center
02:22PM 27.8408 -85.3533 98° East 515 593 33,000  Level Miami Center
02:23PM 27.8378 -85.1914 91° East 493 567 33,000  Level Miami Center
02:24PM 27.8353 -85.0553 91° East 479 551 33,000  Level Miami Center
02:25PM 27.8353 -84.9075 90° East 471 542 33,000  Level Miami Center
02:26PM 27.8369 -84.7622 89° East 471 542 33,000  Level Miami Center
02:27PM 27.8389 -84.6125 89° East 471 542 33,000  Level Miami Center
02:28PM 27.8386 -84.4647 90° East 471 542 33,000  Level Miami Center
02:29PM 27.8358 -84.3144 91° East 471 542 33,000  Level Miami Center
02:30PM 27.8372 -84.1692 89° East 476 548 33,000  Level Miami Center
02:31PM 27.8364 -84.0189 90° East 476 548 33,000 -120 Level Miami Center
02:32PM 27.8375 -83.8689 89° East 481 554 32,800 -1,500 Descending Miami Center
02:33PM 27.8364 -83.7211 90° East 476 548 30,100 -2,580 Descending Miami Center
02:34PM 27.8347 -83.5756 91° East 476 548 27,700 -2,400 Descending Miami Center
02:35PM 27.8308 -83.4347 92° East 464 534 25,400 -2,400 Descending Miami Center
02:36PM 27.8328 -83.3011 89° East 440 506 23,000 -2,280 Descending Miami Center
02:37PM 27.8322 -83.1719 90° East 419 482 20,900 -1,500 Descending Miami Center
02:38PM 27.8314 -83.0475 90° East 403 464 20,100 -780 Descending Miami Center
02:39PM 27.8344 -82.9258 88° East 393 452 19,400 -780 Descending Miami Center
02:40PM 27.8567 -82.7931 79° East 393 452 18,600 -780 Descending Miami Center
02:41PM 27.8736 -82.6883 80° East 388 447 17,900 -720 Descending Miami Center
02:42PM 27.8950 -82.5719 78° East 383 441 17,200 -720 Descending Miami Center
02:43PM 27.9142 -82.4556 79° East 378 435 16,500 -720 Descending Miami Center
02:44PM 27.9517 -82.3472 69° East 367 422 15,800 -780 Descending Miami Center
02:45PM 28.0033 -82.2461 60° Northeast 367 422 15,000 -540 Descending Miami Center
02:46PM 27.9714 -82.1553 112° Southeast 307 353 14,800  Descending Miami Center
02:48PM 27.9000 -81.9833 115° Southeast 345 397 15,000  Climbing Orlando TRACON
02:49PM 27.9000 -81.8833 90° East 342 394 14,900 -900 Descending Orlando TRACON
02:50PM 27.9500 -81.8000 56° Northeast 356 410 13,300 -1,260 Descending Orlando TRACON
02:51PM 28.0333 -81.7333 35° Northeast 377 434 12,600 -1,320 Descending Orlando TRACON
02:52PM 28.1000 -81.6667 41° Northeast 369 425 10,800 -1,500 Descending Orlando TRACON
02:53PM 28.1833 -81.6000 35° Northeast 304 350 9,800 -900 Descending Orlando TRACON
02:54PM 28.2500 -81.5500 33° Northeast 296 341 9,100 -420 Descending Orlando TRACON
02:55PM 28.3167 -81.4833 41° Northeast 296 341 9,000 -180 Descending Orlando TRACON
02:56PM 28.3667 -81.4333 41° Northeast 268 308 8,800 -900 Descending Orlando TRACON
02:57PM 28.4333 -81.4167 12° North 278 320 7,300 -1,620 Descending Orlando TRACON
02:58PM 28.5167 -81.4500 341° North 273 314 5,700 -1,440 Descending Orlando TRACON
02:59PM 28.6000 -81.4333 10° North 257 296 4,300 -1,260 Descending Orlando TRACON
03:00PM 28.6167 -81.3833 69° East 207 238 3,300 -960 Descending Orlando TRACON
03:01PM 28.5667 -81.3500 150° Southeast 182 209 2,400 -840 Descending Orlando TRACON
03:02PM 28.5333 -81.3333 156° South 165 190 1,700 -780 Descending Orlando TRACON
03:03PM 28.5000 -81.3333 180° South 134 154 1,000 -720 Descending Orlando TRACON